createdAt,value
2022-08-18T00:01:36.671Z,65.56
2022-08-18T00:04:29.897Z,64.76
2022-08-18T00:06:54.747Z,67.15
2022-08-18T00:09:21.774Z,65.26
2022-08-18T00:11:48.837Z,64.68
2022-08-18T00:14:22.613Z,66.20
2022-08-18T00:16:53.704Z,65.44
2022-08-18T00:19:46.269Z,64.34
2022-08-18T00:22:15.818Z,64.47
2022-08-18T00:24:48.345Z,63.99
2022-08-18T00:27:28.473Z,65.04
2022-08-18T00:30:00.545Z,64.99
2022-08-18T00:32:36.973Z,65.42
2022-08-18T00:35:18.380Z,63.37
2022-08-18T00:37:45.781Z,63.04
2022-08-18T00:40:22.589Z,65.10
2022-08-18T00:43:00.622Z,63.78
2022-08-18T00:45:37.395Z,64.28
2022-08-18T00:48:08.146Z,65.77
2022-08-18T00:51:06.627Z,65.98
2022-08-18T00:54:01.472Z,64.71
2022-08-18T00:56:44.205Z,64.27
2022-08-18T00:59:35.499Z,65.20
2022-08-18T01:02:10.431Z,65.28
2022-08-18T01:05:16.918Z,64.17
2022-08-18T01:07:49.020Z,64.25
2022-08-18T01:10:21.632Z,64.70
2022-08-18T01:12:54.910Z,64.26
2022-08-18T01:15:28.887Z,64.20
2022-08-18T01:18:23.050Z,63.74
2022-08-18T01:21:37.972Z,65.63
2022-08-18T01:24:12.828Z,66.00
2022-08-18T01:26:46.364Z,67.11
2022-08-18T01:29:18.592Z,66.62
2022-08-18T01:31:56.056Z,67.49
2022-08-18T01:34:28.258Z,67.52
2022-08-18T01:36:56.546Z,67.48
2022-08-18T01:40:59.566Z,65.99
2022-08-18T01:42:13.405Z,66.07
2022-08-18T01:44:41.653Z,65.49
2022-08-18T01:47:11.807Z,66.16
2022-08-18T01:49:43.003Z,67.45
2022-08-18T01:52:20.264Z,66.75
2022-08-18T01:54:48.706Z,65.70
2022-08-18T01:57:18.406Z,65.55
2022-08-18T01:59:45.609Z,64.82
2022-08-18T02:02:20.306Z,62.89
2022-08-18T02:04:48.941Z,61.75
2022-08-18T02:07:15.953Z,62.12
2022-08-18T02:09:46.047Z,62.15
2022-08-18T02:12:18.010Z,62.60
2022-08-18T02:14:45.042Z,63.87
2022-08-18T02:17:14.429Z,65.14
2022-08-18T02:19:46.490Z,65.26
2022-08-18T02:22:19.491Z,66.06
2022-08-18T02:24:47.593Z,65.71
2022-08-18T02:27:16.557Z,65.62
2022-08-18T02:29:43.578Z,68.25
2022-08-18T02:32:10.676Z,68.91
2022-08-18T02:34:37.769Z,68.23
2022-08-18T02:37:05.285Z,67.47
2022-08-18T02:39:37.971Z,69.12
2022-08-18T02:42:08.993Z,70.05
2022-08-18T02:44:36.382Z,67.38
2022-08-18T02:47:03.740Z,66.05
2022-08-18T02:49:30.797Z,65.82
2022-08-18T02:51:58.425Z,67.95
2022-08-18T02:54:26.059Z,70.31
2022-08-18T02:56:53.656Z,69.44
2022-08-18T02:59:27.627Z,68.67
2022-08-18T03:01:56.472Z,67.44
2022-08-18T03:04:29.856Z,68.38
2022-08-18T03:07:03.833Z,65.75
2022-08-18T03:09:34.319Z,67.12
2022-08-18T03:12:02.599Z,66.72
2022-08-18T03:14:30.336Z,68.32
2022-08-18T03:16:57.666Z,67.74
2022-08-18T03:19:29.027Z,69.63
2022-08-18T03:22:03.229Z,70.73
2022-08-18T03:24:32.488Z,71.70
2022-08-18T03:27:01.612Z,71.75
2022-08-18T03:29:32.514Z,72.39
2022-08-18T03:32:03.080Z,69.58
2022-08-18T03:34:31.531Z,69.74
2022-08-18T03:36:59.262Z,69.89
2022-08-18T03:39:27.968Z,69.75
2022-08-18T03:42:01.181Z,72.16
2022-08-18T03:44:38.152Z,71.12
2022-08-18T03:47:10.842Z,71.42
2022-08-18T03:49:38.805Z,72.32
2022-08-18T03:52:10.139Z,70.86
2022-08-18T03:54:38.790Z,70.16
2022-08-18T03:57:10.007Z,70.46
2022-08-18T03:59:38.180Z,72.06
2022-08-18T04:02:05.707Z,71.68
2022-08-18T04:04:33.571Z,71.21
2022-08-18T04:07:10.657Z,72.46
2022-08-18T04:09:38.977Z,72.50
2022-08-18T04:12:13.500Z,71.71
2022-08-18T04:14:48.868Z,71.22
2022-08-18T04:17:23.782Z,71.27
2022-08-18T04:19:54.256Z,70.11
2022-08-18T04:22:22.705Z,69.64
2022-08-18T04:24:51.306Z,69.57
2022-08-18T04:27:21.219Z,69.30
2022-08-18T04:29:48.757Z,70.21
2022-08-18T04:32:16.201Z,72.13
2022-08-18T04:34:43.289Z,74.00
2022-08-18T04:37:10.860Z,75.07
2022-08-18T04:39:38.343Z,75.05
2022-08-18T04:42:05.960Z,75.15
2022-08-18T04:44:34.319Z,75.58
2022-08-18T04:47:02.138Z,74.53
2022-08-18T04:49:30.291Z,72.65
2022-08-18T04:52:34.362Z,71.97
2022-08-18T04:55:05.650Z,71.38
2022-08-18T04:57:34.129Z,68.67
2022-08-18T05:00:04.697Z,69.73
2022-08-18T05:02:33.051Z,70.39
2022-08-18T05:05:01.519Z,67.67
2022-08-18T05:07:30.351Z,66.85
2022-08-18T05:09:57.384Z,67.79
2022-08-18T05:12:26.400Z,68.60
2022-08-18T05:14:56.979Z,69.07
2022-08-18T05:17:28.439Z,67.65
2022-08-18T05:19:58.681Z,68.82
2022-08-18T05:22:28.798Z,68.78
2022-08-18T05:25:00.076Z,66.10
2022-08-18T05:27:33.906Z,65.41
2022-08-18T05:30:02.520Z,65.87
2022-08-18T05:32:46.993Z,67.43
2022-08-18T05:35:26.495Z,65.05
2022-08-18T05:38:39.924Z,65.84
2022-08-18T05:41:33.753Z,65.79
2022-08-18T05:44:01.445Z,65.80
2022-08-18T05:46:56.474Z,65.72
2022-08-18T05:49:27.356Z,66.36
2022-08-18T05:52:06.760Z,65.05
2022-08-18T05:55:14.117Z,64.86
2022-08-18T05:58:01.930Z,62.99
2022-08-18T06:00:30.650Z,63.49
2022-08-18T06:02:59.919Z,63.92
2022-08-18T06:05:57.733Z,64.75
2022-08-18T06:08:41.643Z,61.98
2022-08-18T06:11:22.587Z,64.37
2022-08-18T06:13:54.279Z,63.44
2022-08-18T06:16:45.223Z,63.65
2022-08-18T06:19:49.431Z,62.95
2022-08-18T06:22:59.918Z,62.36
2022-08-18T06:26:08.422Z,62.17
2022-08-18T06:28:55.313Z,60.29
2022-08-18T06:32:01.325Z,60.25
2022-08-18T06:34:43.924Z,58.36
2022-08-18T06:37:30.782Z,56.82
2022-08-18T06:39:58.287Z,55.39
2022-08-18T06:42:31.467Z,56.48
2022-08-18T06:45:12.696Z,56.68
2022-08-18T06:48:24.439Z,55.21
2022-08-18T06:51:01.709Z,55.44
2022-08-18T06:53:58.134Z,55.83
2022-08-18T06:56:51.555Z,54.25
2022-08-18T06:59:26.331Z,55.66
2022-08-18T07:02:24.649Z,55.10
2022-08-18T07:05:19.665Z,55.15
2022-08-18T07:08:10.866Z,54.53
2022-08-18T07:10:45.667Z,54.09
2022-08-18T07:13:30.184Z,54.72
2022-08-18T07:16:56.734Z,54.45
2022-08-18T07:19:20.904Z,54.15
2022-08-18T07:22:17.332Z,54.60
2022-08-18T07:24:50.363Z,53.39
2022-08-18T07:27:39.731Z,53.37
2022-08-18T07:30:19.306Z,53.04
2022-08-18T07:32:56.673Z,53.25
2022-08-18T07:35:58.363Z,51.96
2022-08-18T07:38:44.134Z,50.26
2022-08-18T07:41:37.724Z,49.86
2022-08-18T07:44:18.362Z,50.67
2022-08-18T07:47:33.360Z,49.97
2022-08-18T07:50:26.855Z,49.38
2022-08-18T07:53:54.564Z,49.46
2022-08-18T07:57:20.504Z,48.36
2022-08-18T08:00:03.425Z,47.42
2022-08-18T08:02:45.103Z,47.77
2022-08-18T08:07:23.536Z,48.49
2022-08-18T08:10:01.373Z,46.75
2022-08-18T08:13:08.107Z,46.63
2022-08-18T08:16:09.317Z,46.91
2022-08-18T08:19:12.561Z,47.02
2022-08-18T08:22:01.011Z,48.37
2022-08-18T08:25:22.443Z,46.86
2022-08-18T08:28:30.169Z,47.07
2022-08-18T08:31:33.124Z,45.70
2022-08-18T08:34:24.707Z,46.02
2022-08-18T08:37:02.882Z,45.04
2022-08-18T08:39:53.977Z,44.50
2022-08-18T08:43:00.677Z,43.43
2022-08-18T08:45:47.983Z,43.74
2022-08-18T08:48:26.722Z,43.50
2022-08-18T08:51:33.726Z,43.63
2022-08-18T08:54:30.684Z,45.03
2022-08-18T08:57:01.417Z,45.84
2022-08-18T08:59:28.736Z,45.05
2022-08-18T09:02:50.690Z,46.05
2022-08-18T09:05:46.309Z,46.18
2022-08-18T09:09:17.516Z,45.44
2022-08-18T09:12:25.849Z,44.00
2022-08-18T09:15:33.825Z,44.10
2022-08-18T09:18:31.383Z,44.32
2022-08-18T09:21:45.524Z,44.04
2022-08-18T09:24:24.624Z,42.95
2022-08-18T09:27:43.576Z,43.12
2022-08-18T09:30:42.157Z,43.53
2022-08-18T09:33:32.462Z,44.62
2022-08-18T09:36:15.257Z,43.00
2022-08-18T09:39:36.543Z,41.67
2022-08-18T09:48:43.128Z,41.05
2022-08-18T09:50:37.389Z,44.33
2022-08-18T09:51:17.642Z,41.08
2022-08-18T09:53:53.735Z,39.03
2022-08-18T09:56:54.249Z,38.27
2022-08-18T09:59:35.051Z,37.26
2022-08-18T10:02:24.102Z,38.74
2022-08-18T10:05:17.230Z,38.38
2022-08-18T10:08:06.077Z,37.48
2022-08-18T10:11:20.493Z,36.16
2022-08-18T10:14:42.289Z,33.42
2022-08-18T10:17:35.892Z,35.80
2022-08-18T10:20:55.401Z,36.65
2022-08-18T10:24:29.924Z,34.62
2022-08-18T10:26:54.481Z,34.46
2022-08-18T10:29:25.906Z,36.61
2022-08-18T10:31:56.081Z,35.08
2022-08-18T10:34:52.554Z,32.60
2022-08-18T10:37:44.455Z,33.18
2022-08-18T10:40:14.107Z,32.58
2022-08-18T10:43:26.986Z,33.46
2022-08-18T10:46:24.445Z,31.61
2022-08-18T10:48:44.590Z,30.30
2022-08-18T10:51:30.454Z,31.20
2022-08-18T10:55:03.342Z,30.76
2022-08-18T10:58:02.427Z,29.39
2022-08-18T11:01:22.355Z,29.65
2022-08-18T11:04:33.895Z,31.68
2022-08-18T11:07:24.186Z,31.86
2022-08-18T11:10:27.930Z,32.56
2022-08-18T11:13:35.930Z,29.94
2022-08-18T11:16:17.030Z,30.33
2022-08-18T11:18:57.111Z,27.70
2022-08-18T11:21:42.208Z,26.46
2022-08-18T11:24:26.123Z,27.16
2022-08-18T11:27:16.812Z,28.18
2022-08-18T11:29:44.612Z,27.36
2022-08-18T11:32:39.384Z,27.58
2022-08-18T11:35:20.115Z,28.28
2022-08-18T11:38:03.188Z,28.04
2022-08-18T11:43:39.079Z,27.88
2022-08-18T11:46:29.523Z,28.14
2022-08-18T11:49:01.568Z,28.24
2022-08-18T11:51:33.377Z,29.44
2022-08-18T11:54:12.854Z,27.33
2022-08-18T11:56:40.060Z,27.13
2022-08-18T11:59:55.010Z,26.41
2022-08-18T12:02:26.078Z,25.42
2022-08-18T12:05:10.341Z,24.52
2022-08-18T12:07:57.066Z,26.85
2022-08-18T12:13:25.453Z,25.84
2022-08-18T12:16:35.268Z,25.61
2022-08-18T12:19:06.043Z,28.17
2022-08-18T12:21:53.658Z,29.80
2022-08-18T12:24:36.922Z,28.67
2022-08-18T12:27:12.204Z,28.05
2022-08-18T12:29:47.913Z,26.93
2022-08-18T12:32:17.592Z,29.24
2022-08-18T12:34:48.445Z,26.42
2022-08-18T12:37:58.179Z,26.65
2022-08-18T12:40:15.912Z,27.37
2022-08-18T12:42:43.072Z,28.40
2022-08-18T12:45:10.590Z,27.41
2022-08-18T12:47:41.042Z,27.65
2022-08-18T12:50:09.853Z,27.05
2022-08-18T12:52:37.712Z,24.75
2022-08-18T12:55:08.738Z,26.61
2022-08-18T12:57:55.779Z,26.13
2022-08-18T13:00:27.742Z,26.69
2022-08-18T13:02:57.328Z,26.35
2022-08-18T13:05:26.399Z,26.37
2022-08-18T13:08:09.655Z,25.52
2022-08-18T13:10:46.684Z,25.63
2022-08-18T13:13:18.982Z,24.89
2022-08-18T13:15:57.993Z,26.90
2022-08-18T13:18:28.592Z,25.44
2022-08-18T13:21:00.179Z,26.34
2022-08-18T13:23:28.381Z,26.35
2022-08-18T13:25:59.332Z,24.32
2022-08-18T13:28:35.705Z,25.55
2022-08-18T13:31:17.137Z,26.30
2022-08-18T13:33:57.001Z,24.86
2022-08-18T13:36:45.985Z,26.10
2022-08-18T13:39:21.968Z,24.60
2022-08-18T13:41:52.876Z,24.74
2022-08-18T13:44:22.681Z,24.52
2022-08-18T13:46:55.473Z,26.40
2022-08-18T13:49:29.830Z,27.52
2022-08-18T13:52:00.282Z,28.77
2022-08-18T13:54:35.978Z,28.17
2022-08-18T13:57:04.877Z,28.93
2022-08-18T13:59:34.077Z,29.12
2022-08-18T14:02:08.531Z,29.68
2022-08-18T14:04:38.358Z,30.10
2022-08-18T14:07:10.448Z,31.08
2022-08-18T14:09:38.867Z,39.60
2022-08-18T14:12:27.034Z,50.74
2022-08-18T14:14:57.120Z,45.51
2022-08-18T14:17:26.167Z,45.96
2022-08-18T14:20:21.573Z,48.33
2022-08-18T14:23:21.538Z,45.93
2022-08-18T14:26:09.471Z,47.16
2022-08-18T14:28:38.430Z,48.79
2022-08-18T14:31:08.617Z,49.52
2022-08-18T14:33:50.402Z,59.50
2022-08-18T14:36:20.520Z,60.91
2022-08-18T14:39:01.543Z,57.02
2022-08-18T14:41:29.514Z,64.09
2022-08-18T14:44:12.865Z,67.59
2022-08-18T14:46:52.433Z,59.72
2022-08-18T14:49:29.100Z,62.19
2022-08-18T14:52:01.001Z,58.01
2022-08-18T14:54:30.683Z,59.74
2022-08-18T14:57:01.714Z,59.68
2022-08-18T14:59:34.368Z,60.55
2022-08-18T15:02:13.069Z,63.00
2022-08-18T15:04:53.231Z,61.34
2022-08-18T15:07:25.880Z,58.17
2022-08-18T15:10:15.536Z,53.04
2022-08-18T15:12:40.981Z,55.17
2022-08-18T15:15:15.882Z,54.00
2022-08-18T15:17:50.047Z,56.82
2022-08-18T15:20:28.646Z,49.98
2022-08-18T15:23:22.847Z,50.99
2022-08-18T15:25:52.574Z,49.84
2022-08-18T15:28:25.340Z,50.51
2022-08-18T15:33:40.523Z,52.23
2022-08-18T15:36:10.244Z,52.09
2022-08-18T15:38:38.400Z,56.94
2022-08-18T15:41:05.930Z,58.72
2022-08-18T15:43:33.798Z,55.12
2022-08-18T15:46:01.393Z,53.10
2022-08-18T15:48:30.781Z,53.52
2022-08-18T15:50:57.777Z,54.48
2022-08-18T15:53:39.989Z,53.81
2022-08-18T15:56:21.443Z,56.96
2022-08-18T15:58:50.403Z,58.38
2022-08-18T16:01:30.223Z,58.29
2022-08-18T16:04:01.096Z,61.48
2022-08-18T16:06:32.177Z,57.09
2022-08-18T16:09:01.566Z,56.93
2022-08-18T16:11:29.984Z,56.72
2022-08-18T16:13:58.978Z,58.90
2022-08-18T16:16:35.611Z,60.85
2022-08-18T16:19:06.714Z,62.92
2022-08-18T16:21:38.368Z,57.45
2022-08-18T16:24:06.876Z,54.73
2022-08-18T16:26:33.932Z,57.43
2022-08-18T16:29:01.988Z,56.13
2022-08-18T16:31:29.846Z,51.96
2022-08-18T16:33:58.265Z,54.34
2022-08-18T16:36:26.351Z,54.12
2022-08-18T16:38:56.154Z,53.75
2022-08-18T16:41:26.422Z,57.17
2022-08-18T16:43:53.454Z,60.12
2022-08-18T16:46:27.101Z,60.85
2022-08-18T16:48:57.443Z,62.08
2022-08-18T16:51:28.313Z,63.92
2022-08-18T16:53:55.513Z,68.02
2022-08-18T16:56:28.205Z,69.72
2022-08-18T16:59:15.117Z,72.96
2022-08-18T17:02:01.459Z,75.15
2022-08-18T17:04:34.783Z,77.78
2022-08-18T17:07:05.056Z,75.98
2022-08-18T17:09:34.199Z,75.51
2022-08-18T17:12:02.374Z,73.68
2022-08-18T17:14:32.164Z,77.11
2022-08-18T17:17:00.475Z,75.17
2022-08-18T17:19:33.673Z,76.59
2022-08-18T17:22:03.358Z,76.49
2022-08-18T17:24:32.038Z,76.76
2022-08-18T17:27:25.759Z,76.70
2022-08-18T17:30:17.340Z,78.18
2022-08-18T17:33:12.987Z,75.93
2022-08-18T17:35:46.271Z,77.95
2022-08-18T17:38:37.676Z,77.19
2022-08-18T17:41:06.160Z,78.17
2022-08-18T17:46:30.247Z,76.43
2022-08-18T17:49:13.228Z,77.42
2022-08-18T17:51:55.222Z,76.09
2022-08-18T17:54:43.498Z,73.59
2022-08-18T17:57:29.445Z,74.88
2022-08-18T18:00:13.770Z,75.37
2022-08-18T18:02:48.061Z,76.80
2022-08-18T18:05:20.769Z,77.52
2022-08-18T18:07:50.492Z,77.07
2022-08-18T18:11:04.629Z,77.17
2022-08-18T18:13:34.104Z,78.34
2022-08-18T18:16:35.294Z,80.42
2022-08-18T18:19:12.397Z,77.82
2022-08-18T18:22:00.788Z,80.72
2022-08-18T18:24:34.728Z,79.78
2022-08-18T18:27:22.545Z,77.89
2022-08-18T18:30:27.586Z,77.64
2022-08-18T18:33:14.919Z,78.98
2022-08-18T18:35:55.498Z,81.54
2022-08-18T18:38:40.664Z,79.11
2022-08-18T18:41:13.305Z,78.97
2022-08-18T18:43:46.714Z,80.48
2022-08-18T18:46:25.167Z,78.17
2022-08-18T18:49:10.201Z,79.24
2022-08-18T18:52:05.964Z,79.11
2022-08-18T18:55:04.695Z,78.06
2022-08-18T18:58:07.449Z,79.33
2022-08-18T19:01:03.733Z,78.63
2022-08-18T19:03:49.349Z,78.04
2022-08-18T19:06:41.046Z,79.00
2022-08-18T19:09:21.770Z,78.88
2022-08-18T19:12:24.345Z,76.75
2022-08-18T19:15:00.305Z,77.97
2022-08-18T19:17:49.794Z,77.64
2022-08-18T19:22:02.055Z,79.34
2022-08-18T19:24:29.938Z,78.82
2022-08-18T19:27:03.734Z,76.50
2022-08-18T19:29:40.767Z,76.73
2022-08-18T19:32:23.409Z,76.53
2022-08-18T19:34:55.669Z,79.91
2022-08-18T19:37:40.898Z,80.64
2022-08-18T19:40:27.176Z,79.44
2022-08-18T19:43:23.674Z,80.07
2022-08-18T19:46:44.041Z,82.35
2022-08-18T19:49:34.764Z,77.84
2022-08-18T19:52:49.513Z,77.80
2022-08-18T19:56:07.411Z,76.55
2022-08-18T19:59:18.654Z,77.94
2022-08-18T20:01:52.110Z,78.62
2022-08-18T20:05:12.590Z,78.52
2022-08-18T20:08:54.911Z,79.92
2022-08-18T20:12:00.999Z,80.87
2022-08-18T20:14:32.113Z,81.21
2022-08-18T20:17:22.564Z,81.36
2022-08-18T20:19:57.348Z,82.02
2022-08-18T20:22:25.048Z,80.90
2022-08-18T20:25:17.399Z,82.06
2022-08-18T20:28:12.921Z,81.02
2022-08-18T20:31:04.828Z,80.74
2022-08-18T20:33:46.057Z,79.78
2022-08-18T20:36:36.599Z,79.95
2022-08-18T20:39:41.789Z,78.72
2022-08-18T20:42:20.971Z,78.07
2022-08-18T20:44:51.990Z,76.85
2022-08-18T20:48:05.775Z,78.97
2022-08-18T20:51:02.164Z,79.29
2022-08-18T20:54:01.467Z,76.92
2022-08-18T20:56:53.957Z,77.97
2022-08-18T20:59:33.256Z,79.09
2022-08-18T21:02:25.304Z,77.21
2022-08-18T21:04:59.000Z,79.62
2022-08-18T21:07:59.081Z,78.28
2022-08-18T21:10:31.008Z,78.48
2022-08-18T21:13:07.815Z,77.55
2022-08-18T21:15:38.199Z,78.97
2022-08-18T21:18:19.534Z,79.26
2022-08-18T21:20:52.944Z,78.61
2022-08-18T21:23:41.745Z,77.90
2022-08-18T21:26:16.309Z,77.89
2022-08-18T21:28:51.526Z,77.25
2022-08-18T21:31:43.618Z,78.26
2022-08-18T21:34:33.418Z,78.15
2022-08-18T21:37:07.853Z,80.90
2022-08-18T21:39:47.171Z,78.49
2022-08-18T21:42:46.854Z,79.18
2022-08-18T21:45:23.170Z,79.92
2022-08-18T21:48:06.041Z,81.18
2022-08-18T21:50:35.308Z,82.15
2022-08-18T21:53:10.862Z,84.74
2022-08-18T21:55:45.072Z,83.43
2022-08-18T21:58:17.662Z,82.88
2022-08-18T22:01:14.926Z,82.24
2022-08-18T22:04:33.455Z,81.07
2022-08-18T22:07:32.109Z,84.05
2022-08-18T22:10:46.791Z,84.67
2022-08-18T22:13:59.064Z,82.36
2022-08-18T22:16:36.373Z,83.31
2022-08-18T22:19:23.827Z,84.62
2022-08-18T22:22:25.392Z,82.92
2022-08-18T22:24:59.767Z,82.94
2022-08-18T22:27:27.372Z,82.50
2022-08-18T22:30:05.212Z,82.73
2022-08-18T22:32:37.508Z,81.99
2022-08-18T22:35:07.608Z,82.53
2022-08-18T22:37:48.774Z,84.12
2022-08-18T22:40:17.279Z,82.88
2022-08-18T22:42:49.055Z,84.27
2022-08-18T22:45:16.177Z,83.82
2022-08-18T22:47:44.967Z,82.75
2022-08-18T22:50:13.998Z,83.16
2022-08-18T22:52:48.265Z,83.04
2022-08-18T22:55:22.115Z,84.33
2022-08-18T22:57:55.853Z,84.05
2022-08-18T23:00:25.336Z,83.66
2022-08-18T23:02:54.368Z,84.75
2022-08-18T23:05:21.876Z,82.78
2022-08-18T23:07:49.804Z,83.38
2022-08-18T23:10:17.524Z,83.43
2022-08-18T23:12:47.017Z,81.95
2022-08-18T23:15:17.604Z,83.74
2022-08-18T23:17:44.661Z,83.29
2022-08-18T23:20:19.600Z,82.25
2022-08-18T23:22:48.196Z,82.24
2022-08-18T23:25:16.126Z,82.37
2022-08-18T23:27:43.314Z,83.41
2022-08-18T23:30:11.495Z,84.38
2022-08-18T23:32:38.496Z,84.64
2022-08-18T23:35:05.970Z,84.01
2022-08-18T23:37:33.039Z,83.45
2022-08-18T23:40:00.068Z,82.99
2022-08-18T23:42:27.364Z,83.44
2022-08-18T23:44:58.867Z,83.00
2022-08-18T23:47:26.202Z,81.82
2022-08-18T23:49:54.307Z,82.10
2022-08-18T23:52:21.460Z,82.76
2022-08-18T23:54:48.450Z,83.65
2022-08-18T23:57:15.434Z,84.50
2022-08-18T23:59:42.562Z,84.68
